sensor_id;sensor_type;location;lat;lon;timestamp;temperature;humidity
2579;DHT22;1299;48.282;14.398;2023-08-12T00:01:53;17.10;99.90
2579;DHT22;1299;48.282;14.398;2023-08-12T00:04:20;17.00;99.90
2579;DHT22;1299;48.282;14.398;2023-08-12T00:06:48;17.00;99.90
2579;DHT22;1299;48.282;14.398;2023-08-12T00:09:15;17.10;99.90
2579;DHT22;1299;48.282;14.398;2023-08-12T00:11:42;17.00;99.90
2579;DHT22;1299;48.282;14.398;2023-08-12T00:14:09;17.10;99.90
2579;DHT22;1299;48.282;14.398;2023-08-12T00:16:36;17.00;99.90
2579;DHT22;1299;48.282;14.398;2023-08-12T00:19:04;17.10;99.90
2579;DHT22;1299;48.282;14.398;2023-08-12T00:21:31;17.00;99.90
2579;DHT22;1299;48.282;14.398;2023-08-12T00:23:58;17.10;99.90
2579;DHT22;1299;48.282;14.398;2023-08-12T00:26:25;17.10;99.90
2579;DHT22;1299;48.282;14.398;2023-08-12T00:28:53;17.00;99.90
2579;DHT22;1299;48.282;14.398;2023-08-12T00:31:20;17.00;99.90
2579;DHT22;1299;48.282;14.398;2023-08-12T00:33:47;16.90;99.90
2579;DHT22;1299;48.282;14.398;2023-08-12T00:36:15;16.80;99.90
2579;DHT22;1299;48.282;14.398;2023-08-12T00:38:42;16.90;99.90
2579;DHT22;1299;48.282;14.398;2023-08-12T00:41:09;16.90;99.90
2579;DHT22;1299;48.282;14.398;2023-08-12T00:43:36;16.90;99.90
2579;DHT22;1299;48.282;14.398;2023-08-12T00:46:04;17.00;99.90
2579;DHT22;1299;48.282;14.398;2023-08-12T00:48:31;16.90;99.90
2579;DHT22;1299;48.282;14.398;2023-08-12T00:50:59;16.50;99.90
2579;DHT22;1299;48.282;14.398;2023-08-12T00:53:27;16.70;99.90
2579;DHT22;1299;48.282;14.398;2023-08-12T00:55:55;16.80;99.90
2579;DHT22;1299;48.282;14.398;2023-08-12T00:58:22;16.90;99.90
2579;DHT22;1299;48.282;14.398;2023-08-12T01:00:49;16.80;99.90
2579;DHT22;1299;48.282;14.398;2023-08-12T01:03:17;16.80;99.90
2579;DHT22;1299;48.282;14.398;2023-08-12T01:05:45;16.90;99.90
2579;DHT22;1299;48.282;14.398;2023-08-12T01:08:13;16.80;99.90
2579;DHT22;1299;48.282;14.398;2023-08-12T01:10:47;16.40;99.90
2579;DHT22;1299;48.282;14.398;2023-08-12T01:13:28;16.10;99.90
2579;DHT22;1299;48.282;14.398;2023-08-12T01:15:58;15.90;99.90
2579;DHT22;1299;48.282;14.398;2023-08-12T01:18:26;16.00;99.90
2579;DHT22;1299;48.282;14.398;2023-08-12T01:20:53;16.20;99.90
2579;DHT22;1299;48.282;14.398;2023-08-12T01:23:22;16.50;99.90
2579;DHT22;1299;48.282;14.398;2023-08-12T01:25:49;16.60;99.90
2579;DHT22;1299;48.282;14.398;2023-08-12T01:28:16;16.70;99.90
2579;DHT22;1299;48.282;14.398;2023-08-12T01:30:48;16.70;99.90
2579;DHT22;1299;48.282;14.398;2023-08-12T01:33:23;16.70;99.90
2579;DHT22;1299;48.282;14.398;2023-08-12T01:35:56;16.60;99.90
2579;DHT22;1299;48.282;14.398;2023-08-12T01:38:28;16.60;99.90
2579;DHT22;1299;48.282;14.398;2023-08-12T01:40:59;16.50;99.90
2579;DHT22;1299;48.282;14.398;2023-08-12T01:43:27;16.50;99.90
2579;DHT22;1299;48.282;14.398;2023-08-12T01:45:54;16.60;99.90
2579;DHT22;1299;48.282;14.398;2023-08-12T01:48:21;16.60;99.90
2579;DHT22;1299;48.282;14.398;2023-08-12T01:50:49;16.50;99.90
2579;DHT22;1299;48.282;14.398;2023-08-12T01:53:16;16.50;99.90
2579;DHT22;1299;48.282;14.398;2023-08-12T01:55:45;16.60;99.90
2579;DHT22;1299;48.282;14.398;2023-08-12T01:58:12;16.60;99.90
2579;DHT22;1299;48.282;14.398;2023-08-12T02:00:39;16.60;99.90
2579;DHT22;1299;48.282;14.398;2023-08-12T02:03:06;16.40;99.90
2579;DHT22;1299;48.282;14.398;2023-08-12T02:05:33;16.60;99.90
2579;DHT22;1299;48.282;14.398;2023-08-12T02:08:03;16.50;99.90
2579;DHT22;1299;48.282;14.398;2023-08-12T02:10:30;16.50;99.90
2579;DHT22;1299;48.282;14.398;2023-08-12T02:12:58;16.50;99.90
2579;DHT22;1299;48.282;14.398;2023-08-12T02:15:25;16.40;99.90
2579;DHT22;1299;48.282;14.398;2023-08-12T02:17:52;16.30;99.90
2579;DHT22;1299;48.282;14.398;2023-08-12T02:20:19;16.20;99.90
2579;DHT22;1299;48.282;14.398;2023-08-12T02:22:46;16.20;99.90
2579;DHT22;1299;48.282;14.398;2023-08-12T02:25:14;16.10;99.90
2579;DHT22;1299;48.282;14.398;2023-08-12T02:27:41;16.10;99.90
2579;DHT22;1299;48.282;14.398;2023-08-12T02:30:10;16.00;99.90
2579;DHT22;1299;48.282;14.398;2023-08-12T02:32:37;15.90;99.90
2579;DHT22;1299;48.282;14.398;2023-08-12T02:35:05;15.90;99.90
2579;DHT22;1299;48.282;14.398;2023-08-12T02:37:32;15.80;99.90
2579;DHT22;1299;48.282;14.398;2023-08-12T02:39:59;15.80;99.90
2579;DHT22;1299;48.282;14.398;2023-08-12T02:42:26;15.70;99.90
2579;DHT22;1299;48.282;14.398;2023-08-12T02:44:53;15.70;99.90
2579;DHT22;1299;48.282;14.398;2023-08-12T02:47:23;15.70;99.90
2579;DHT22;1299;48.282;14.398;2023-08-12T02:49:50;15.60;99.90
2579;DHT22;1299;48.282;14.398;2023-08-12T02:52:17;15.70;99.90
2579;DHT22;1299;48.282;14.398;2023-08-12T02:54:44;15.60;99.90
2579;DHT22;1299;48.282;14.398;2023-08-12T02:57:11;15.60;99.90
2579;DHT22;1299;48.282;14.398;2023-08-12T02:59:38;15.50;99.90
2579;DHT22;1299;48.282;14.398;2023-08-12T03:02:05;15.50;99.90
2579;DHT22;1299;48.282;14.398;2023-08-12T03:04:33;15.50;99.90
2579;DHT22;1299;48.282;14.398;2023-08-12T03:07:00;15.50;99.90
2579;DHT22;1299;48.282;14.398;2023-08-12T03:09:28;15.50;99.90
2579;DHT22;1299;48.282;14.398;2023-08-12T03:11:55;15.50;99.90
2579;DHT22;1299;48.282;14.398;2023-08-12T03:14:22;15.50;99.90
2579;DHT22;1299;48.282;14.398;2023-08-12T03:16:49;15.50;99.90
2579;DHT22;1299;48.282;14.398;2023-08-12T03:19:16;15.40;99.90
2579;DHT22;1299;48.282;14.398;2023-08-12T03:21:44;15.40;99.90
2579;DHT22;1299;48.282;14.398;2023-08-12T03:24:11;15.30;99.90
2579;DHT22;1299;48.282;14.398;2023-08-12T03:26:38;15.30;99.90
2579;DHT22;1299;48.282;14.398;2023-08-12T03:29:05;15.30;99.90
2579;DHT22;1299;48.282;14.398;2023-08-12T03:31:32;15.30;99.90
2579;DHT22;1299;48.282;14.398;2023-08-12T03:33:59;15.30;99.90
2579;DHT22;1299;48.282;14.398;2023-08-12T03:36:26;15.30;99.90
2579;DHT22;1299;48.282;14.398;2023-08-12T03:38:54;15.30;99.90
2579;DHT22;1299;48.282;14.398;2023-08-12T03:41:21;15.20;99.90
2579;DHT22;1299;48.282;14.398;2023-08-12T03:43:48;15.20;99.90
2579;DHT22;1299;48.282;14.398;2023-08-12T03:46:16;15.10;99.90
2579;DHT22;1299;48.282;14.398;2023-08-12T03:48:43;15.10;99.90
2579;DHT22;1299;48.282;14.398;2023-08-12T03:51:11;15.10;99.90
2579;DHT22;1299;48.282;14.398;2023-08-12T03:53:38;15.10;99.90
2579;DHT22;1299;48.282;14.398;2023-08-12T03:56:06;15.10;99.90
2579;DHT22;1299;48.282;14.398;2023-08-12T03:58:33;15.10;99.90
2579;DHT22;1299;48.282;14.398;2023-08-12T04:01:00;15.00;99.90
2579;DHT22;1299;48.282;14.398;2023-08-12T04:03:27;15.00;99.90
2579;DHT22;1299;48.282;14.398;2023-08-12T04:05:54;15.00;99.90
2579;DHT22;1299;48.282;14.398;2023-08-12T04:08:22;15.10;99.90
2579;DHT22;1299;48.282;14.398;2023-08-12T04:10:50;15.00;99.90
2579;DHT22;1299;48.282;14.398;2023-08-12T04:13:19;15.00;99.90
2579;DHT22;1299;48.282;14.398;2023-08-12T04:15:48;15.10;99.90
2579;DHT22;1299;48.282;14.398;2023-08-12T04:18:15;15.10;99.90
2579;DHT22;1299;48.282;14.398;2023-08-12T04:20:45;15.10;99.90
2579;DHT22;1299;48.282;14.398;2023-08-12T04:23:12;15.10;99.90
2579;DHT22;1299;48.282;14.398;2023-08-12T04:25:39;15.10;99.90
2579;DHT22;1299;48.282;14.398;2023-08-12T04:28:06;15.20;99.90
2579;DHT22;1299;48.282;14.398;2023-08-12T04:30:34;15.30;99.90
2579;DHT22;1299;48.282;14.398;2023-08-12T04:33:01;15.40;99.90
2579;DHT22;1299;48.282;14.398;2023-08-12T04:35:31;15.40;99.90
2579;DHT22;1299;48.282;14.398;2023-08-12T04:37:58;15.30;99.90
2579;DHT22;1299;48.282;14.398;2023-08-12T04:40:25;15.00;99.90
2579;DHT22;1299;48.282;14.398;2023-08-12T04:42:52;15.00;99.90
2579;DHT22;1299;48.282;14.398;2023-08-12T04:45:19;14.80;99.90
2579;DHT22;1299;48.282;14.398;2023-08-12T04:47:47;15.00;99.90
2579;DHT22;1299;48.282;14.398;2023-08-12T04:50:14;15.20;99.90
2579;DHT22;1299;48.282;14.398;2023-08-12T04:52:41;15.30;99.90
2579;DHT22;1299;48.282;14.398;2023-08-12T04:55:09;15.30;99.90
2579;DHT22;1299;48.282;14.398;2023-08-12T04:57:37;14.80;99.90
2579;DHT22;1299;48.282;14.398;2023-08-12T05:00:05;14.70;99.90
2579;DHT22;1299;48.282;14.398;2023-08-12T05:02:33;15.00;99.90
2579;DHT22;1299;48.282;14.398;2023-08-12T05:05:02;15.10;99.90
2579;DHT22;1299;48.282;14.398;2023-08-12T05:07:29;15.30;99.90
2579;DHT22;1299;48.282;14.398;2023-08-12T05:09:57;15.30;99.90
2579;DHT22;1299;48.282;14.398;2023-08-12T05:12:23;15.40;99.90
2579;DHT22;1299;48.282;14.398;2023-08-12T05:14:50;15.50;99.90
2579;DHT22;1299;48.282;14.398;2023-08-12T05:17:17;15.30;99.90
2579;DHT22;1299;48.282;14.398;2023-08-12T05:19:44;15.40;99.90
2579;DHT22;1299;48.282;14.398;2023-08-12T05:22:13;15.60;99.90
2579;DHT22;1299;48.282;14.398;2023-08-12T05:24:40;15.90;99.90
2579;DHT22;1299;48.282;14.398;2023-08-12T05:27:07;16.60;99.90
2579;DHT22;1299;48.282;14.398;2023-08-12T05:29:34;16.90;99.90
2579;DHT22;1299;48.282;14.398;2023-08-12T05:32:01;17.60;99.90
2579;DHT22;1299;48.282;14.398;2023-08-12T05:34:28;18.10;99.90
2579;DHT22;1299;48.282;14.398;2023-08-12T05:36:55;18.40;99.90
2579;DHT22;1299;48.282;14.398;2023-08-12T05:39:23;18.40;99.90
2579;DHT22;1299;48.282;14.398;2023-08-12T05:41:50;19.00;99.90
2579;DHT22;1299;48.282;14.398;2023-08-12T05:44:18;20.10;99.90
2579;DHT22;1299;48.282;14.398;2023-08-12T05:46:44;20.90;99.90
2579;DHT22;1299;48.282;14.398;2023-08-12T05:49:11;22.00;99.90
2579;DHT22;1299;48.282;14.398;2023-08-12T05:51:38;23.60;99.90
2579;DHT22;1299;48.282;14.398;2023-08-12T05:54:07;24.40;99.90
2579;DHT22;1299;48.282;14.398;2023-08-12T05:56:35;25.40;99.90
2579;DHT22;1299;48.282;14.398;2023-08-12T05:59:02;25.00;99.90
2579;DHT22;1299;48.282;14.398;2023-08-12T06:01:29;27.00;99.90
2579;DHT22;1299;48.282;14.398;2023-08-12T06:03:56;28.50;99.80
2579;DHT22;1299;48.282;14.398;2023-08-12T06:06:23;28.10;97.70
2579;DHT22;1299;48.282;14.398;2023-08-12T06:08:49;28.80;97.50
2579;DHT22;1299;48.282;14.398;2023-08-12T06:11:16;27.10;97.10
2579;DHT22;1299;48.282;14.398;2023-08-12T06:13:45;28.10;97.70
2579;DHT22;1299;48.282;14.398;2023-08-12T06:16:11;29.00;96.90
2579;DHT22;1299;48.282;14.398;2023-08-12T06:18:39;30.60;94.30
2579;DHT22;1299;48.282;14.398;2023-08-12T06:21:05;30.40;94.10
2579;DHT22;1299;48.282;14.398;2023-08-12T06:23:32;31.00;92.90
2579;DHT22;1299;48.282;14.398;2023-08-12T06:25:59;30.80;93.10
2579;DHT22;1299;48.282;14.398;2023-08-12T06:28:26;31.50;92.00
2579;DHT22;1299;48.282;14.398;2023-08-12T06:30:54;31.40;92.60
2579;DHT22;1299;48.282;14.398;2023-08-12T06:33:21;30.80;92.90
2579;DHT22;1299;48.282;14.398;2023-08-12T06:35:50;29.40;94.30
2579;DHT22;1299;48.282;14.398;2023-08-12T06:38:17;27.30;96.70
2579;DHT22;1299;48.282;14.398;2023-08-12T06:40:44;27.20;97.70
2579;DHT22;1299;48.282;14.398;2023-08-12T06:43:12;27.40;98.30
2579;DHT22;1299;48.282;14.398;2023-08-12T06:45:39;27.20;99.10
2579;DHT22;1299;48.282;14.398;2023-08-12T06:48:07;26.70;99.60
2579;DHT22;1299;48.282;14.398;2023-08-12T06:50:34;26.40;99.90
2579;DHT22;1299;48.282;14.398;2023-08-12T06:53:01;26.20;99.90
2579;DHT22;1299;48.282;14.398;2023-08-12T06:55:28;26.30;99.90
2579;DHT22;1299;48.282;14.398;2023-08-12T06:57:55;26.50;99.90
2579;DHT22;1299;48.282;14.398;2023-08-12T07:00:22;26.50;99.90
2579;DHT22;1299;48.282;14.398;2023-08-12T07:02:49;26.20;99.90
2579;DHT22;1299;48.282;14.398;2023-08-12T07:05:17;26.00;99.90
2579;DHT22;1299;48.282;14.398;2023-08-12T07:07:44;25.80;99.90
2579;DHT22;1299;48.282;14.398;2023-08-12T07:10:11;25.80;99.90
2579;DHT22;1299;48.282;14.398;2023-08-12T07:12:38;25.50;99.60
2579;DHT22;1299;48.282;14.398;2023-08-12T07:15:06;25.50;99.90
2579;DHT22;1299;48.282;14.398;2023-08-12T07:17:33;24.60;99.90
2579;DHT22;1299;48.282;14.398;2023-08-12T07:20:00;24.40;99.90
2579;DHT22;1299;48.282;14.398;2023-08-12T07:22:28;23.70;99.90
2579;DHT22;1299;48.282;14.398;2023-08-12T07:24:55;24.20;99.90
2579;DHT22;1299;48.282;14.398;2023-08-12T07:27:25;23.90;99.90
2579;DHT22;1299;48.282;14.398;2023-08-12T07:29:52;24.00;99.90
2579;DHT22;1299;48.282;14.398;2023-08-12T07:32:19;24.20;99.90
2579;DHT22;1299;48.282;14.398;2023-08-12T07:34:46;24.60;99.90
2579;DHT22;1299;48.282;14.398;2023-08-12T07:37:13;24.80;99.90
2579;DHT22;1299;48.282;14.398;2023-08-12T07:39:41;24.00;99.90
2579;DHT22;1299;48.282;14.398;2023-08-12T07:42:08;23.60;99.90
2579;DHT22;1299;48.282;14.398;2023-08-12T07:44:35;23.90;99.90
2579;DHT22;1299;48.282;14.398;2023-08-12T07:47:02;24.30;99.90
2579;DHT22;1299;48.282;14.398;2023-08-12T07:49:29;23.80;99.90
2579;DHT22;1299;48.282;14.398;2023-08-12T07:51:56;24.00;99.90
2579;DHT22;1299;48.282;14.398;2023-08-12T07:54:23;24.10;99.90
2579;DHT22;1299;48.282;14.398;2023-08-12T07:56:52;24.20;99.90
2579;DHT22;1299;48.282;14.398;2023-08-12T07:59:19;24.40;99.90
2579;DHT22;1299;48.282;14.398;2023-08-12T08:01:46;24.40;99.90
2579;DHT22;1299;48.282;14.398;2023-08-12T08:04:13;24.20;99.90
2579;DHT22;1299;48.282;14.398;2023-08-12T08:06:40;24.50;99.90
2579;DHT22;1299;48.282;14.398;2023-08-12T08:09:07;24.70;99.90
2579;DHT22;1299;48.282;14.398;2023-08-12T08:11:34;24.90;99.90
2579;DHT22;1299;48.282;14.398;2023-08-12T08:14:02;24.70;99.90
2579;DHT22;1299;48.282;14.398;2023-08-12T08:16:29;24.60;99.90
2579;DHT22;1299;48.282;14.398;2023-08-12T08:18:56;25.10;99.90
2579;DHT22;1299;48.282;14.398;2023-08-12T08:21:23;25.40;99.90
2579;DHT22;1299;48.282;14.398;2023-08-12T08:23:50;25.20;99.90
2579;DHT22;1299;48.282;14.398;2023-08-12T08:26:17;25.40;99.90
2579;DHT22;1299;48.282;14.398;2023-08-12T08:28:44;25.70;99.90
2579;DHT22;1299;48.282;14.398;2023-08-12T08:31:13;25.40;99.90
2579;DHT22;1299;48.282;14.398;2023-08-12T08:33:40;25.90;99.90
2579;DHT22;1299;48.282;14.398;2023-08-12T08:36:07;25.60;99.90
2579;DHT22;1299;48.282;14.398;2023-08-12T08:38:34;25.40;99.90
2579;DHT22;1299;48.282;14.398;2023-08-12T08:41:01;25.30;99.90
2579;DHT22;1299;48.282;14.398;2023-08-12T08:43:30;25.40;99.90
2579;DHT22;1299;48.282;14.398;2023-08-12T08:46:00;25.70;99.90
2579;DHT22;1299;48.282;14.398;2023-08-12T08:48:29;25.80;99.90
2579;DHT22;1299;48.282;14.398;2023-08-12T08:50:56;25.90;99.90
2579;DHT22;1299;48.282;14.398;2023-08-12T08:53:24;25.80;99.90
2579;DHT22;1299;48.282;14.398;2023-08-12T08:55:52;25.40;99.90
2579;DHT22;1299;48.282;14.398;2023-08-12T08:58:19;25.60;99.90
2579;DHT22;1299;48.282;14.398;2023-08-12T09:00:47;25.80;99.90
2579;DHT22;1299;48.282;14.398;2023-08-12T09:03:14;25.90;99.90
2579;DHT22;1299;48.282;14.398;2023-08-12T09:05:43;25.80;99.90
2579;DHT22;1299;48.282;14.398;2023-08-12T09:08:11;26.00;99.90
2579;DHT22;1299;48.282;14.398;2023-08-12T09:10:39;26.20;99.90
2579;DHT22;1299;48.282;14.398;2023-08-12T09:13:07;26.60;99.90
2579;DHT22;1299;48.282;14.398;2023-08-12T09:15:35;26.90;99.90
2579;DHT22;1299;48.282;14.398;2023-08-12T09:18:04;26.80;99.90
2579;DHT22;1299;48.282;14.398;2023-08-12T09:20:32;26.60;99.90
2579;DHT22;1299;48.282;14.398;2023-08-12T09:23:01;26.50;99.90
2579;DHT22;1299;48.282;14.398;2023-08-12T09:25:29;26.60;99.90
2579;DHT22;1299;48.282;14.398;2023-08-12T09:27:59;26.10;99.90
2579;DHT22;1299;48.282;14.398;2023-08-12T09:30:28;26.10;99.90
2579;DHT22;1299;48.282;14.398;2023-08-12T09:33:00;26.20;99.90
2579;DHT22;1299;48.282;14.398;2023-08-12T09:35:33;26.50;99.90
2579;DHT22;1299;48.282;14.398;2023-08-12T09:38:03;26.80;99.90
2579;DHT22;1299;48.282;14.398;2023-08-12T09:40:31;26.90;99.90
2579;DHT22;1299;48.282;14.398;2023-08-12T09:42:59;27.30;99.90
2579;DHT22;1299;48.282;14.398;2023-08-12T09:45:26;26.20;99.90
2579;DHT22;1299;48.282;14.398;2023-08-12T09:47:54;26.80;99.90
2579;DHT22;1299;48.282;14.398;2023-08-12T09:50:22;26.60;99.90
2579;DHT22;1299;48.282;14.398;2023-08-12T09:52:50;26.70;99.90
2579;DHT22;1299;48.282;14.398;2023-08-12T09:55:21;27.10;99.90
2579;DHT22;1299;48.282;14.398;2023-08-12T09:57:50;27.30;99.90
2579;DHT22;1299;48.282;14.398;2023-08-12T10:00:18;27.70;99.90
2579;DHT22;1299;48.282;14.398;2023-08-12T10:02:47;27.50;99.90
2579;DHT22;1299;48.282;14.398;2023-08-12T10:05:19;27.80;99.90
2579;DHT22;1299;48.282;14.398;2023-08-12T10:07:48;27.40;99.90
2579;DHT22;1299;48.282;14.398;2023-08-12T10:10:15;27.60;99.90
2579;DHT22;1299;48.282;14.398;2023-08-12T10:12:43;27.60;99.90
2579;DHT22;1299;48.282;14.398;2023-08-12T10:15:11;27.90;99.90
2579;DHT22;1299;48.282;14.398;2023-08-12T10:17:38;28.10;99.90
2579;DHT22;1299;48.282;14.398;2023-08-12T10:20:08;28.30;99.90
2579;DHT22;1299;48.282;14.398;2023-08-12T10:22:36;27.50;99.90
2579;DHT22;1299;48.282;14.398;2023-08-12T10:25:07;27.70;99.90
2579;DHT22;1299;48.282;14.398;2023-08-12T10:27:35;27.90;99.90
2579;DHT22;1299;48.282;14.398;2023-08-12T10:30:06;28.00;99.90
2579;DHT22;1299;48.282;14.398;2023-08-12T10:32:33;28.00;99.90
2579;DHT22;1299;48.282;14.398;2023-08-12T10:35:00;28.40;99.90
2579;DHT22;1299;48.282;14.398;2023-08-12T10:37:32;28.40;99.90
2579;DHT22;1299;48.282;14.398;2023-08-12T10:40:00;28.40;99.90
2579;DHT22;1299;48.282;14.398;2023-08-12T10:42:47;28.20;99.90
2579;DHT22;1299;48.282;14.398;2023-08-12T10:45:16;28.30;99.90
2579;DHT22;1299;48.282;14.398;2023-08-12T10:48:15;28.20;99.90
2579;DHT22;1299;48.282;14.398;2023-08-12T10:50:44;28.50;99.90
2579;DHT22;1299;48.282;14.398;2023-08-12T10:53:25;29.00;99.90
2579;DHT22;1299;48.282;14.398;2023-08-12T10:55:56;28.90;99.40
2579;DHT22;1299;48.282;14.398;2023-08-12T10:58:28;28.90;98.80
2579;DHT22;1299;48.282;14.398;2023-08-12T11:00:57;29.00;98.60
2579;DHT22;1299;48.282;14.398;2023-08-12T11:03:25;29.00;99.40
2579;DHT22;1299;48.282;14.398;2023-08-12T11:05:53;29.40;98.90
2579;DHT22;1299;48.282;14.398;2023-08-12T11:08:26;29.60;98.40
2579;DHT22;1299;48.282;14.398;2023-08-12T11:10:55;29.50;98.00
2579;DHT22;1299;48.282;14.398;2023-08-12T11:13:22;29.60;97.60
2579;DHT22;1299;48.282;14.398;2023-08-12T11:15:50;30.00;97.60
2579;DHT22;1299;48.282;14.398;2023-08-12T11:18:19;30.00;96.80
2579;DHT22;1299;48.282;14.398;2023-08-12T11:20:48;30.20;95.60
2579;DHT22;1299;48.282;14.398;2023-08-12T11:23:16;30.00;96.40
2579;DHT22;1299;48.282;14.398;2023-08-12T11:25:44;29.80;95.60
2579;DHT22;1299;48.282;14.398;2023-08-12T11:28:11;29.70;95.10
2579;DHT22;1299;48.282;14.398;2023-08-12T11:30:41;29.60;94.70
2579;DHT22;1299;48.282;14.398;2023-08-12T11:33:09;29.20;94.70
2579;DHT22;1299;48.282;14.398;2023-08-12T11:35:37;29.80;95.20
2579;DHT22;1299;48.282;14.398;2023-08-12T11:38:06;30.30;96.60
2579;DHT22;1299;48.282;14.398;2023-08-12T11:40:34;29.90;92.80
2579;DHT22;1299;48.282;14.398;2023-08-12T11:43:02;30.10;93.90
2579;DHT22;1299;48.282;14.398;2023-08-12T11:45:29;29.50;92.80
2579;DHT22;1299;48.282;14.398;2023-08-12T11:47:56;30.10;94.00
2579;DHT22;1299;48.282;14.398;2023-08-12T11:50:25;30.40;93.50
2579;DHT22;1299;48.282;14.398;2023-08-12T11:52:55;30.60;94.80
2579;DHT22;1299;48.282;14.398;2023-08-12T11:55:22;30.50;93.00
2579;DHT22;1299;48.282;14.398;2023-08-12T11:57:50;30.40;92.30
2579;DHT22;1299;48.282;14.398;2023-08-12T12:00:18;30.40;92.50
2579;DHT22;1299;48.282;14.398;2023-08-12T12:02:49;30.80;91.70
2579;DHT22;1299;48.282;14.398;2023-08-12T12:05:16;31.10;92.30
2579;DHT22;1299;48.282;14.398;2023-08-12T12:07:43;30.80;90.80
2579;DHT22;1299;48.282;14.398;2023-08-12T12:10:17;30.70;90.80
2579;DHT22;1299;48.282;14.398;2023-08-12T12:12:45;30.80;91.70
2579;DHT22;1299;48.282;14.398;2023-08-12T12:15:13;30.90;92.10
2579;DHT22;1299;48.282;14.398;2023-08-12T12:17:41;30.60;91.20
2579;DHT22;1299;48.282;14.398;2023-08-12T12:20:09;30.70;90.00
2579;DHT22;1299;48.282;14.398;2023-08-12T12:22:37;31.10;91.10
2579;DHT22;1299;48.282;14.398;2023-08-12T12:25:09;31.20;91.60
2579;DHT22;1299;48.282;14.398;2023-08-12T12:27:39;31.40;90.30
2579;DHT22;1299;48.282;14.398;2023-08-12T12:30:07;31.30;89.10
2579;DHT22;1299;48.282;14.398;2023-08-12T12:32:35;31.50;90.70
2579;DHT22;1299;48.282;14.398;2023-08-12T12:35:02;31.00;89.80
2579;DHT22;1299;48.282;14.398;2023-08-12T12:37:30;31.00;90.30
2579;DHT22;1299;48.282;14.398;2023-08-12T12:39:56;31.30;90.10
2579;DHT22;1299;48.282;14.398;2023-08-12T12:42:23;31.20;90.00
2579;DHT22;1299;48.282;14.398;2023-08-12T12:44:52;31.30;88.40
2579;DHT22;1299;48.282;14.398;2023-08-12T12:47:19;31.20;88.10
2579;DHT22;1299;48.282;14.398;2023-08-12T12:49:46;31.10;87.40
2579;DHT22;1299;48.282;14.398;2023-08-12T12:52:13;31.00;87.40
2579;DHT22;1299;48.282;14.398;2023-08-12T12:54:40;31.30;86.80
2579;DHT22;1299;48.282;14.398;2023-08-12T12:57:07;31.60;89.20
2579;DHT22;1299;48.282;14.398;2023-08-12T12:59:34;31.50;85.00
2579;DHT22;1299;48.282;14.398;2023-08-12T13:02:02;31.70;85.90
2579;DHT22;1299;48.282;14.398;2023-08-12T13:04:29;31.80;87.70
2579;DHT22;1299;48.282;14.398;2023-08-12T13:06:56;31.60;86.60
2579;DHT22;1299;48.282;14.398;2023-08-12T13:09:23;32.10;87.30
2579;DHT22;1299;48.282;14.398;2023-08-12T13:11:50;31.80;84.10
2579;DHT22;1299;48.282;14.398;2023-08-12T13:14:18;31.80;84.30
2579;DHT22;1299;48.282;14.398;2023-08-12T13:16:46;31.50;86.10
2579;DHT22;1299;48.282;14.398;2023-08-12T13:19:14;31.50;84.50
2579;DHT22;1299;48.282;14.398;2023-08-12T13:21:41;31.60;84.00
2579;DHT22;1299;48.282;14.398;2023-08-12T13:24:08;31.50;82.30
2579;DHT22;1299;48.282;14.398;2023-08-12T13:26:35;31.60;84.10
2579;DHT22;1299;48.282;14.398;2023-08-12T13:29:03;31.10;85.00
2579;DHT22;1299;48.282;14.398;2023-08-12T13:31:30;31.30;84.40
2579;DHT22;1299;48.282;14.398;2023-08-12T13:33:57;31.70;84.10
2579;DHT22;1299;48.282;14.398;2023-08-12T13:36:26;31.40;83.30
2579;DHT22;1299;48.282;14.398;2023-08-12T13:38:52;31.40;85.40
2579;DHT22;1299;48.282;14.398;2023-08-12T13:41:19;31.80;85.00
2579;DHT22;1299;48.282;14.398;2023-08-12T13:43:46;31.80;86.20
2579;DHT22;1299;48.282;14.398;2023-08-12T13:46:13;31.90;86.20
2579;DHT22;1299;48.282;14.398;2023-08-12T13:48:40;31.90;87.20
2579;DHT22;1299;48.282;14.398;2023-08-12T13:51:07;32.10;87.20
2579;DHT22;1299;48.282;14.398;2023-08-12T13:53:36;32.50;86.00
2579;DHT22;1299;48.282;14.398;2023-08-12T13:56:04;32.10;85.90
2579;DHT22;1299;48.282;14.398;2023-08-12T13:58:30;31.70;87.50
2579;DHT22;1299;48.282;14.398;2023-08-12T14:00:57;31.20;86.10
2579;DHT22;1299;48.282;14.398;2023-08-12T14:03:25;31.80;86.40
2579;DHT22;1299;48.282;14.398;2023-08-12T14:05:52;32.20;87.70
2579;DHT22;1299;48.282;14.398;2023-08-12T14:08:19;32.10;87.70
2579;DHT22;1299;48.282;14.398;2023-08-12T14:10:47;31.90;87.60
2579;DHT22;1299;48.282;14.398;2023-08-12T14:13:15;31.80;87.60
2579;DHT22;1299;48.282;14.398;2023-08-12T14:15:43;32.00;88.50
2579;DHT22;1299;48.282;14.398;2023-08-12T14:18:10;31.00;87.30
2579;DHT22;1299;48.282;14.398;2023-08-12T14:20:37;31.80;88.00
2579;DHT22;1299;48.282;14.398;2023-08-12T14:23:04;31.70;89.30
2579;DHT22;1299;48.282;14.398;2023-08-12T14:25:31;31.70;88.50
2579;DHT22;1299;48.282;14.398;2023-08-12T14:27:59;31.70;89.70
2579;DHT22;1299;48.282;14.398;2023-08-12T14:30:26;31.90;88.50
2579;DHT22;1299;48.282;14.398;2023-08-12T14:32:54;32.10;90.00
2579;DHT22;1299;48.282;14.398;2023-08-12T14:35:21;32.10;87.40
2579;DHT22;1299;48.282;14.398;2023-08-12T14:37:48;32.20;90.10
2579;DHT22;1299;48.282;14.398;2023-08-12T14:40:15;31.90;89.30
2579;DHT22;1299;48.282;14.398;2023-08-12T14:42:42;32.30;89.50
2579;DHT22;1299;48.282;14.398;2023-08-12T14:45:11;32.40;90.40
2579;DHT22;1299;48.282;14.398;2023-08-12T14:47:38;32.30;90.00
2579;DHT22;1299;48.282;14.398;2023-08-12T14:50:06;31.80;89.20
2579;DHT22;1299;48.282;14.398;2023-08-12T14:52:34;31.90;90.20
2579;DHT22;1299;48.282;14.398;2023-08-12T14:55:01;31.80;90.00
2579;DHT22;1299;48.282;14.398;2023-08-12T14:57:28;32.10;90.20
2579;DHT22;1299;48.282;14.398;2023-08-12T14:59:55;31.80;90.00
2579;DHT22;1299;48.282;14.398;2023-08-12T15:02:23;32.10;90.20
2579;DHT22;1299;48.282;14.398;2023-08-12T15:04:50;32.10;90.20
2579;DHT22;1299;48.282;14.398;2023-08-12T15:07:19;32.00;90.10
2579;DHT22;1299;48.282;14.398;2023-08-12T15:09:47;31.70;90.00
2579;DHT22;1299;48.282;14.398;2023-08-12T15:12:14;32.10;90.10
2579;DHT22;1299;48.282;14.398;2023-08-12T15:14:41;32.40;90.20
2579;DHT22;1299;48.282;14.398;2023-08-12T15:17:08;32.60;90.50
2579;DHT22;1299;48.282;14.398;2023-08-12T15:19:36;32.70;90.10
2579;DHT22;1299;48.282;14.398;2023-08-12T15:22:04;32.90;90.20
2579;DHT22;1299;48.282;14.398;2023-08-12T15:24:31;32.90;90.30
2579;DHT22;1299;48.282;14.398;2023-08-12T15:26:59;32.90;89.50
2579;DHT22;1299;48.282;14.398;2023-08-12T15:29:26;32.90;90.10
2579;DHT22;1299;48.282;14.398;2023-08-12T15:31:53;32.70;88.60
2579;DHT22;1299;48.282;14.398;2023-08-12T15:34:21;32.50;90.50
2579;DHT22;1299;48.282;14.398;2023-08-12T15:36:50;32.50;88.60
2579;DHT22;1299;48.282;14.398;2023-08-12T15:39:17;32.50;89.60
2579;DHT22;1299;48.282;14.398;2023-08-12T15:41:44;32.30;90.40
2579;DHT22;1299;48.282;14.398;2023-08-12T15:44:12;32.10;90.20
2579;DHT22;1299;48.282;14.398;2023-08-12T15:46:40;32.00;90.10
2579;DHT22;1299;48.282;14.398;2023-08-12T15:49:07;32.00;90.40